Главная страница
METAR-TAF:

METAR-TAF

Аэропорты :

Нью-Хейвен, Коннектикут, США

широта: 41-15-50N, долгота: 072-53-14W, высота над уровнем моря: 4 м

Текущие метеонаблюдения

Эта сводка был подготовлена 32 минут назад, в 17:53 UTC
Ветер 4 Узел от южный
Температура 19°C
Влажность 64%
Давление 1013 hPa
Видимость: 16.1 км
Рассеянная облачность на высоте 4100 фута
Сплошная облачность на высоте 4700 фута

METAR: KHVN 121753Z 18004KT 10SM BKN041 OVC047 19/12 A2990 RMK AO2 SLP125 60003 T01890122 10211 20172 53003

Время: 14:25 (18:25 UTC)


TAF: отсутствует

Метеонаблюдения и прогнозы для более 4000 аэропортов (сводки METAR и TAF).

Имеющиеся станции представлены на карте желтыми и красными точками.

Чтобы увидеть название станции, наведите на нее мышь.

Затем щелкните, чтобы увидеть метеонаблюдения и метеопрогнозы.

Управление картой: чтобы увеличить масштаб, щелкните зеленые кнопки с черным крестиком; чтобы уменьшить масштаб, щелкните зеленую кнопку с тире; для просмотра соседних карт щелкайте зеленые стрелки.


METAR-TAF: